Time;durP1;ratioP1;P1;durP2;ratioP2;P2;SDS_P1;SDS_P2;PMS_P1;PMS_P2;Temp;Humidity;BMP_temperature;BMP_pressure;BME280_temperature;BME280_humidity;BME280_pressure;Samples;Min_cycle;Max_cycle;Signal;HPM_P1;HPM_P2
2021/09/04 05:01:19;;;;;;;9.15;6.75;;;;;;;19.84;58.37;94911.72;5723684;23;20138;-78
2021/09/04 05:03:44;;;;;;;6.53;5.93;;;;;;;20.18;57.03;94915.38;4933288;29;20500;-77
2021/09/04 05:06:09;;;;;;;9.30;6.13;;;;;;;20.75;53.82;94910.22;4916290;29;20091;-76
2021/09/04 05:08:35;;;;;;;6.53;5.68;;;;;;;21.61;52.63;94919.69;4913599;29;20103;-77
2021/09/04 05:11:00;;;;;;;6.20;5.13;;;;;;;22.03;51.62;94919.03;4931042;29;20024;-78
2021/09/04 05:13:26;;;;;;;4.25;3.85;;;;;;;22.78;49.49;94915.81;4897512;29;20067;-78
2021/09/04 05:15:51;;;;;;;4.55;4.15;;;;;;;22.12;51.03;94911.53;4900021;29;20031;-77
2021/09/04 05:18:17;;;;;;;4.45;4.05;;;;;;;22.32;51.25;94917.06;4884286;29;20506;-76
2021/09/04 05:20:46;;;;;;;6.00;5.22;;;;;;;22.30;51.40;94928.91;4916216;29;20035;-77
2021/09/04 05:23:12;;;;;;;9.40;4.32;;;;;;;21.42;53.88;94927.81;4901730;29;20036;-76
2021/09/04 05:25:38;;;;;;;4.70;4.25;;;;;;;20.85;55.82;94911.22;4914925;29;20406;-76
2021/09/04 05:28:04;;;;;;;5.80;5.28;;;;;;;19.89;59.96;94909.22;4881227;29;20032;-76
2021/09/04 05:30:30;;;;;;;6.30;4.20;;;;;;;20.82;57.81;94895.09;4913736;29;20087;-76
2021/09/04 05:32:55;;;;;;;6.65;5.90;;;;;;;20.15;60.27;94904.50;4899908;29;20024;-76
2021/09/04 05:35:21;;;;;;;5.72;5.22;;;;;;;20.50;59.91;94913.16;4914544;29;20043;-76
2021/09/04 05:37:47;;;;;;;31.38;6.80;;;;;;;22.42;53.45;94913.75;4932091;29;20024;-75
2021/09/04 05:40:12;;;;;;;12.85;5.88;;;;;;;23.83;50.40;94911.78;4914586;29;20050;-75
2021/09/04 05:42:38;;;;;;;6.25;4.88;;;;;;;25.16;46.45;94905.06;4914568;29;20048;-76
2021/09/04 05:45:08;;;;;;;5.65;4.80;;;;;;;25.03;45.65;94916.97;4898732;29;20055;-76
2021/09/04 05:47:33;;;;;;;5.78;5.20;;;;;;;24.47;46.49;94910.63;4913553;29;20539;-77
2021/09/04 05:49:59;;;;;;;5.93;5.32;;;;;;;26.48;42.81;94921.78;4916300;29;20019;-74
2021/09/04 05:52:24;;;;;;;6.13;5.68;;;;;;;26.10;43.83;94917.84;4931589;29;20031;-75
2021/09/04 05:54:49;;;;;;;8.18;5.18;;;;;;;27.86;40.12;94918.13;4900624;29;20035;-75
2021/09/04 05:57:15;;;;;;;7.28;5.10;;;;;;;27.07;41.15;94911.19;4915217;29;20505;-75
2021/09/04 05:59:40;;;;;;;6.90;3.95;;;;;;;24.21;46.76;94919.47;4931721;29;20035;-76
2021/09/04 06:02:06;;;;;;;5.45;4.47;;;;;;;21.87;54.06;94904.00;4924577;29;20058;-77
2021/09/04 06:04:35;;;;;;;4.55;4.18;;;;;;;21.25;55.77;94905.94;4930239;29;20027;-76
2021/09/04 06:07:00;;;;;;;6.47;3.70;;;;;;;21.79;54.67;94900.97;4931031;29;20417;-76
2021/09/04 06:09:26;;;;;;;4.70;4.30;;;;;;;21.94;54.71;94914.41;4927230;29;20040;-78
2021/09/04 06:11:51;;;;;;;6.55;3.72;;;;;;;21.68;55.41;94917.66;4931589;29;20035;-78
2021/09/04 06:14:17;;;;;;;4.78;4.20;;;;;;;21.68;56.34;94915.03;4931214;29;20035;-78
2021/09/04 06:16:42;;;;;;;4.65;3.97;;;;;;;21.97;55.90;94900.72;4930316;29;20500;-77
2021/09/04 06:19:08;;;;;;;3.83;3.45;;;;;;;21.81;54.97;94906.78;4930872;29;20032;-77
2021/09/04 06:21:33;;;;;;;4.85;3.53;;;;;;;21.97;55.85;94906.81;4928055;29;20098;-77
2021/09/04 06:24:00;;;;;;;5.10;3.03;;;;;;;22.16;54.62;94917.09;4930150;29;20459;-78
2021/09/04 06:26:26;;;;;;;4.20;3.80;;;;;;;21.94;54.21;94914.41;4929183;29;20028;-77
2021/09/04 06:28:51;;;;;;;3.95;3.05;;;;;;;22.73;52.57;94928.16;4914235;29;20032;-77
2021/09/04 06:31:17;;;;;;;3.78;3.40;;;;;;;22.50;52.02;94919.41;4928299;29;20043;-78
2021/09/04 06:33:42;;;;;;;3.40;3.10;;;;;;;25.42;47.72;94917.31;4930213;29;20035;-77
2021/09/04 06:36:08;;;;;;;3.90;3.45;;;;;;;30.07;36.73;94909.25;4914583;29;20032;-78
2021/09/04 06:38:33;;;;;;;3.60;3.33;;;;;;;30.47;35.50;94913.09;4930260;29;20035;-77
2021/09/04 06:40:59;;;;;;;5.80;3.42;;;;;;;29.65;36.78;94907.53;4929801;29;20024;-78
2021/09/04 06:43:24;;;;;;;4.15;3.75;;;;;;;31.14;33.85;94910.75;4925246;29;20040;-77
2021/09/04 06:45:50;;;;;;;6.28;3.60;;;;;;;31.65;33.42;94905.84;4910000;29;20525;-76
2021/09/04 06:48:16;;;;;;;3.45;3.15;;;;;;;29.45;36.35;94904.34;4916687;29;20027;-75
2021/09/04 06:50:41;;;;;;;3.58;3.30;;;;;;;31.13;33.12;94898.44;4931456;29;20387;-76
2021/09/04 06:53:07;;;;;;;3.50;3.28;;;;;;;32.46;31.90;94908.41;4927634;29;20074;-75
2021/09/04 06:55:32;;;;;;;4.35;3.38;;;;;;;31.94;32.75;94908.09;4931181;29;20492;-76
2021/09/04 06:57:57;;;;;;;4.18;3.20;;;;;;;31.70;32.72;94911.09;4929841;29;20465;-77
2021/09/04 07:00:23;;;;;;;4.60;3.72;;;;;;;30.78;33.77;94910.66;4927495;29;20050;-77
2021/09/04 07:02:48;;;;;;;3.85;3.53;;;;;;;25.47;43.72;94909.34;4929983;29;20039;-76
2021/09/04 07:05:14;;;;;;;3.45;3.15;;;;;;;23.97;46.98;94912.94;4929854;29;20023;-76
2021/09/04 07:07:39;;;;;;;4.65;3.40;;;;;;;24.32;44.81;94904.44;4945328;28;20425;-75
2021/09/04 07:10:05;;;;;;;8.60;3.47;;;;;;;24.05;47.14;94899.22;4930545;29;20031;-76
2021/09/04 07:12:31;;;;;;;3.47;3.17;;;;;;;22.49;50.09;94894.06;4928515;29;20028;-76
2021/09/04 07:14:56;;;;;;;4.75;3.60;;;;;;;24.44;47.35;94883.84;4927214;29;20039;-76
2021/09/04 07:17:21;;;;;;;6.25;3.15;;;;;;;23.61;47.54;94891.53;4930386;29;20032;-76
2021/09/04 07:19:47;;;;;;;4.75;3.78;;;;;;;24.29;45.75;94884.59;4929166;29;20043;-77
2021/09/04 07:22:13;;;;;;;4.88;3.25;;;;;;;24.85;44.78;94890.91;4927153;29;20039;-77
2021/09/04 07:24:38;;;;;;;3.60;3.00;;;;;;;24.32;46.06;94881.41;4927267;29;20509;-76
2021/09/04 07:27:04;;;;;;;5.15;2.92;;;;;;;24.41;45.96;94882.50;4927572;29;20039;-77
2021/09/04 07:29:30;;;;;;;4.68;3.47;;;;;;;24.10;46.66;94884.19;4930429;29;20103;-77
2021/09/04 07:31:55;;;;;;;3.55;3.05;;;;;;;24.72;43.82;94878.16;4928936;29;20042;-76
2021/09/04 07:34:21;;;;;;;5.38;3.30;;;;;;;24.16;47.47;94882.41;4926249;29;20067;-75
2021/09/04 07:36:46;;;;;;;3.55;3.25;;;;;;;24.12;47.05;94883.94;4927397;29;20024;-76
2021/09/04 07:39:12;;;;;;;4.57;3.90;;;;;;;24.25;47.37;94883.50;4912950;29;20031;-76
2021/09/04 07:41:37;;;;;;;4.60;3.60;;;;;;;23.52;49.25;94886.97;4927570;29;20039;-77
2021/09/04 07:44:03;;;;;;;3.95;3.15;;;;;;;23.61;49.19;94894.16;4924646;29;20175;-76
2021/09/04 07:46:28;;;;;;;3.67;3.38;;;;;;;21.38;51.97;94889.78;4939433;29;20169;-78
2021/09/04 07:48:54;;;;;;;4.95;3.28;;;;;;;22.87;49.05;94895.03;4928090;29;20024;-77
2021/09/04 07:51:19;;;;;;;3.70;3.40;;;;;;;22.95;49.17;94899.88;4931216;29;20036;-78
2021/09/04 07:53:45;;;;;;;7.50;3.10;;;;;;;24.34;47.61;94897.84;4901366;29;20844;-79
2021/09/04 07:56:10;;;;;;;4.80;3.63;;;;;;;24.62;47.74;94900.09;4918725;29;20118;-78
2021/09/04 07:58:36;;;;;;;4.18;3.22;;;;;;;23.93;48.38;94911.84;4925121;29;20095;-77
2021/09/04 08:01:01;;;;;;;3.40;3.10;;;;;;;23.97;48.59;94900.53;4923872;29;20048;-78
2021/09/04 08:03:27;;;;;;;3.75;3.33;;;;;;;23.71;48.90;94914.63;4929292;29;20119;-78
2021/09/04 08:05:52;;;;;;;4.22;3.30;;;;;;;23.48;48.21;94912.31;4944048;28;20040;-78
2021/09/04 08:08:18;;;;;;;3.55;3.20;;;;;;;23.60;47.57;94912.94;4921033;29;20894;-78
2021/09/04 08:10:44;;;;;;;3.67;3.28;;;;;;;23.66;47.83;94913.78;4919424;29;20039;-78
2021/09/04 08:13:11;;;;;;;7.10;3.22;;;;;;;23.05;48.93;94905.28;4924988;29;20070;-77
2021/09/04 08:15:37;;;;;;;3.75;3.20;;;;;;;24.32;46.77;94897.31;4918214;29;20857;-77
2021/09/04 08:18:02;;;;;;;3.55;3.25;;;;;;;23.69;47.63;94906.16;4914622;29;20114;-75
2021/09/04 08:20:28;;;;;;;3.63;2.70;;;;;;;22.68;49.41;94899.84;4950375;28;20155;-76
2021/09/04 08:22:53;;;;;;;3.42;3.10;;;;;;;24.35;46.54;94899.44;4925618;29;20036;-76
2021/09/04 08:25:19;;;;;;;3.28;3.00;;;;;;;24.67;46.82;94902.75;4927890;29;20271;-77
2021/09/04 08:27:44;;;;;;;4.45;3.50;;;;;;;24.50;46.23;94896.06;4929014;29;20040;-77
2021/09/04 08:30:10;;;;;;;4.38;3.25;;;;;;;25.08;45.34;94903.72;4914781;29;20020;-77
2021/09/04 08:32:36;;;;;;;4.03;3.40;;;;;;;22.73;48.42;94909.69;4930152;29;20118;-76
2021/09/04 08:35:01;;;;;;;8.85;3.40;;;;;;;23.85;47.71;94907.84;4927560;29;20122;-80
2021/09/04 08:37:27;;;;;;;4.25;2.75;;;;;;;24.31;44.96;94903.66;4926811;29;20028;-76
2021/09/04 08:39:52;;;;;;;3.47;3.17;;;;;;;24.89;46.82;94909.75;4921941;29;20040;-76
2021/09/04 08:42:18;;;;;;;3.58;3.05;;;;;;;25.02;46.60;94906.59;4931783;29;20035;-77
2021/09/04 08:44:44;;;;;;;5.22;3.83;;;;;;;24.00;47.43;94901.84;4943869;29;20051;-76
2021/09/04 08:47:11;;;;;;;5.30;3.10;;;;;;;25.04;45.71;94897.31;4931547;28;20035;-78
2021/09/04 08:49:36;;;;;;;4.13;3.75;;;;;;;25.33;44.66;94895.03;4929795;29;20035;-77
2021/09/04 08:52:02;;;;;;;4.07;3.40;;;;;;;24.61;45.48;94893.19;4931216;29;20036;-78
2021/09/04 08:54:28;;;;;;;4.88;2.90;;;;;;;24.98;46.06;94903.69;4914494;29;20042;-79
2021/09/04 08:56:53;;;;;;;5.57;3.30;;;;;;;25.49;45.48;94894.00;4913693;29;20118;-80
2021/09/04 08:59:19;;;;;;;3.25;2.83;;;;;;;25.02;43.28;94894.16;4931189;29;20039;-78
2021/09/04 09:01:45;;;;;;;5.38;3.38;;;;;;;25.24;44.01;94899.22;4928114;29;20075;-78
2021/09/04 09:04:13;;;;;;;5.68;3.42;;;;;;;25.84;43.19;94909.13;4915152;29;20539;-77
2021/09/04 09:06:39;;;;;;;3.50;3.20;;;;;;;26.28;42.87;94906.69;4928574;29;20039;-77
2021/09/04 09:09:22;;;;;;;4.70;3.22;;;;;;;25.66;42.33;94904.31;4930859;29;20032;-78
2021/09/04 09:11:51;;;;;;;5.10;3.67;;;;;;;24.84;42.72;94897.28;4915172;29;20067;-76
2021/09/04 09:14:17;;;;;;;3.95;3.42;;;;;;;24.64;41.85;94892.69;4932457;29;20027;-76
2021/09/04 09:16:59;;;;;;;4.03;3.20;;;;;;;24.45;42.61;94888.09;4931640;29;20040;-78
2021/09/04 09:19:28;;;;;;;3.67;3.38;;;;;;;25.75;42.54;94881.50;4930200;29;20036;-77
2021/09/04 09:21:56;;;;;;;;;;;;;;;25.73;42.75;94890.78;4932366;29;20032;-77
2021/09/04 09:24:22;;;;;;;3.58;3.28;;;;;;;24.87;41.65;94880.06;4918170;29;20399;-77
2021/09/04 09:26:52;;;;;;;3.70;3.40;;;;;;;25.60;42.22;94879.66;4930855;29;20024;-75
2021/09/04 09:29:20;;;;;;;4.70;3.67;;;;;;;25.85;40.96;94889.44;4931340;29;20043;-81
2021/09/04 09:31:46;;;;;;;3.67;3.38;;;;;;;24.17;43.58;94893.78;4914648;29;20051;-77
2021/09/04 09:34:12;;;;;;;5.00;3.22;;;;;;;25.59;41.87;94875.41;4927927;29;20123;-75
2021/09/04 09:36:47;;;;;;;3.83;3.53;;;;;;;26.08;40.16;94875.63;4939101;29;20425;-77
2021/09/04 09:39:13;;;;;;;3.83;3.15;;;;;;;25.46;41.16;94870.59;4948474;28;20032;-75
2021/09/04 09:41:49;;;;;;;3.88;3.40;;;;;;;25.19;38.56;94859.44;4951951;28;20043;-77
2021/09/04 09:44:21;;;;;;;4.25;3.85;;;;;;;25.69;39.98;94859.47;4931619;28;20509;-75
2021/09/04 09:46:48;;;;;;;5.93;3.20;;;;;;;25.79;40.09;94844.59;4915620;29;20039;-76
2021/09/04 09:49:14;;;;;;;3.85;3.55;;;;;;;26.27;41.40;94854.63;4929721;29;20648;-78
2021/09/04 09:51:39;;;;;;;6.95;3.78;;;;;;;26.15;40.11;94857.53;4929418;29;20032;-75
2021/09/04 09:54:05;;;;;;;3.20;2.90;;;;;;;25.74;40.25;94844.63;4945238;29;20062;-75
2021/09/04 09:56:30;;;;;;;4.63;3.75;;;;;;;24.65;41.35;94835.19;4909353;29;20505;-75
2021/09/04 09:58:55;;;;;;;4.07;3.78;;;;;;;25.64;40.06;94832.16;4911545;29;20039;-75
2021/09/04 10:01:21;;;;;;;4.35;3.97;;;;;;;25.87;39.99;94820.19;4914586;29;20044;-75
2021/09/04 10:03:46;;;;;;;4.03;3.72;;;;;;;25.43;40.33;94823.38;4915389;29;20466;-76
2021/09/04 10:06:12;;;;;;;4.05;3.30;;;;;;;25.05;40.49;94827.34;4929839;29;20043;-75
2021/09/04 10:08:37;;;;;;;4.20;3.90;;;;;;;25.57;42.47;94826.31;4946807;29;20032;-77
2021/09/04 10:11:05;;;;;;;3.70;3.40;;;;;;;26.26;41.21;94826.47;4944931;29;20039;-76
2021/09/04 10:13:30;;;;;;;3.78;3.47;;;;;;;24.49;44.24;94818.47;4912158;29;20024;-73
2021/09/04 10:15:56;;;;;;;9.63;3.95;;;;;;;25.55;41.83;94823.16;4917906;29;20093;-75
2021/09/04 10:18:25;;;;;;;5.50;3.75;;;;;;;26.07;41.83;94820.91;4918036;29;20028;-76
2021/09/04 10:21:20;;;;;;;4.85;4.35;;;;;;;25.86;42.91;94824.69;4947744;28;20718;-75
2021/09/04 10:23:53;;;;;;;4.90;4.15;;;;;;;26.19;40.25;94818.00;4902585;29;20060;-76
2021/09/04 10:26:21;;;;;;;8.30;3.83;;;;;;;26.60;40.16;94835.34;4930804;29;20094;-75
2021/09/04 10:29:08;;;;;;;6.03;3.42;;;;;;;25.51;40.45;94836.16;4931536;29;20843;-78
2021/09/04 10:31:48;;;;;;;4.85;3.72;;;;;;;26.09;41.50;94833.94;4931064;29;20040;-75
2021/09/04 10:34:20;;;;;;;5.28;4.20;;;;;;;26.12;43.09;94836.03;4915738;29;20148;-79
2021/09/04 10:36:54;;;;;;;4.25;3.95;;;;;;;25.48;41.66;94834.00;4914425;29;20032;-76
2021/09/04 10:39:21;;;;;;;4.03;3.60;;;;;;;25.50;41.23;94834.56;4932257;29;20489;-74
2021/09/04 10:41:47;;;;;;;7.68;6.50;;;;;;;25.45;41.95;94826.56;4929226;29;20032;-76
2021/09/04 10:44:12;;;;;;;9.35;4.95;;;;;;;25.15;41.80;94823.91;4931354;29;20441;-77
2021/09/04 10:46:38;;;;;;;4.40;3.92;;;;;;;25.52;41.91;94811.22;4928276;29;20035;-74
2021/09/04 10:49:04;;;;;;;6.40;4.40;;;;;;;25.65;42.19;94810.66;4930071;29;20047;-76
2021/09/04 10:51:45;;;;;;;5.53;3.80;;;;;;;25.09;43.15;94814.34;4929593;29;20035;-74
2021/09/04 10:54:10;;;;;;;5.05;4.13;;;;;;;24.99;42.56;94804.53;4919150;29;20648;-73
2021/09/04 10:56:37;;;;;;;5.80;3.72;;;;;;;25.13;42.87;94794.22;4954479;28;20062;-73
2021/09/04 10:59:02;;;;;;;3.92;3.50;;;;;;;25.33;42.34;94794.22;4913021;29;20035;-74
2021/09/04 11:01:48;;;;;;;4.43;3.70;;;;;;;25.15;44.75;94792.09;4929301;29;20126;-70
2021/09/04 11:04:13;;;;;;;5.10;4.00;;;;;;;25.79;42.05;94796.81;4910736;29;20047;-72
2021/09/04 11:06:39;;;;;;;3.72;3.42;;;;;;;26.26;40.93;94799.13;4910578;29;20028;-75
2021/09/04 11:09:04;;;;;;;4.70;3.72;;;;;;;26.21;42.03;94805.22;4910103;29;20490;-75
2021/09/04 11:11:35;;;;;;;4.05;3.70;;;;;;;25.87;41.58;94793.63;4923994;29;20028;-74
2021/09/04 11:14:30;;;;;;;6.50;4.40;;;;;;;26.13;42.39;94795.16;4914087;29;20036;-72
2021/09/04 11:16:58;;;;;;;5.60;3.72;;;;;;;26.05;39.95;94801.81;4925453;29;20031;-74
2021/09/04 11:19:26;;;;;;;4.38;3.58;;;;;;;25.25;39.18;94791.28;4929364;29;20111;-75
2021/09/04 11:21:57;;;;;;;12.07;4.32;;;;;;;25.11;41.29;94796.31;4927083;29;20441;-74
2021/09/04 11:24:28;;;;;;;6.63;3.65;;;;;;;25.38;39.79;94807.47;4911828;29;20463;-74
2021/09/04 11:26:55;;;;;;;3.72;3.42;;;;;;;25.87;39.12;94798.94;4898123;29;20110;-73
2021/09/04 11:29:21;;;;;;;3.83;3.53;;;;;;;25.68;40.78;94802.19;4928780;29;20047;-73
2021/09/04 11:31:53;;;;;;;4.30;3.25;;;;;;;25.53;38.70;94799.53;4930598;29;20036;-74
2021/09/04 11:34:35;;;;;;;3.85;3.65;;;;;;;25.49;38.70;94787.88;4927691;29;20032;-75
2021/09/04 11:37:32;;;;;;;3.40;3.20;;;;;;;25.48;41.14;94791.56;4928626;29;20059;-75
2021/09/04 11:40:14;;;;;;;5.28;3.75;;;;;;;25.99;38.66;94794.91;4926275;29;20618;-75
2021/09/04 11:42:43;;;;;;;4.22;3.90;;;;;;;25.81;37.41;94790.19;4944107;29;20031;-72
2021/09/04 11:45:11;;;;;;;4.07;3.55;;;;;;;26.08;38.75;94793.28;4945393;29;20042;-74
2021/09/04 11:47:39;;;;;;;3.47;3.28;;;;;;;26.19;35.67;94797.53;4910573;29;20063;-74
2021/09/04 11:50:07;;;;;;;3.67;3.28;;;;;;;26.15;35.39;94793.00;4911076;29;20098;-72
2021/09/04 11:52:34;;;;;;;6.10;3.58;;;;;;;25.94;36.58;94786.97;4927501;29;20546;-74
2021/09/04 11:55:19;;;;;;;5.35;3.60;;;;;;;26.17;37.43;94789.03;4912603;29;20040;-74
2021/09/04 11:57:48;;;;;;;3.83;3.40;;;;;;;25.82;37.94;94786.47;4929547;29;20028;-73
2021/09/04 12:00:17;;;;;;;6.95;3.92;;;;;;;25.57;38.27;94786.53;4928288;29;20478;-74
2021/09/04 12:02:44;;;;;;;4.72;3.83;;;;;;;25.87;39.14;94778.50;4915862;29;20082;-73
2021/09/04 12:05:09;;;;;;;4.25;3.90;;;;;;;25.88;37.75;94764.16;4931056;29;20032;-74
2021/09/04 12:07:35;;;;;;;4.10;3.70;;;;;;;25.76;38.32;94765.50;4929407;29;20032;-75
2021/09/04 12:10:01;;;;;;;4.82;3.58;;;;;;;25.47;37.53;94766.06;4913227;29;20060;-74
2021/09/04 12:12:27;;;;;;;4.15;3.85;;;;;;;25.85;37.65;94761.25;4911414;29;20087;-75
2021/09/04 12:14:53;;;;;;;7.82;4.40;;;;;;;25.85;38.23;94763.91;4928693;29;20520;-75
2021/09/04 12:17:18;;;;;;;4.20;3.90;;;;;;;25.86;39.10;94760.19;4928248;29;20096;-75
2021/09/04 12:19:45;;;;;;;4.47;4.07;;;;;;;25.74;39.32;94752.53;4913662;29;20079;-75
2021/09/04 12:22:11;;;;;;;11.68;4.47;;;;;;;25.32;36.78;94742.22;4930135;29;20540;-77
2021/09/04 12:24:36;;;;;;;4.45;3.78;;;;;;;25.24;36.09;94747.28;4928231;29;20039;-75
2021/09/04 12:27:03;;;;;;;4.22;3.92;;;;;;;25.31;37.68;94745.94;4929542;29;20386;-75
2021/09/04 12:29:30;;;;;;;5.72;3.83;;;;;;;25.29;38.30;94734.00;4929342;29;20499;-75
2021/09/04 12:32:09;;;;;;;4.22;3.67;;;;;;;25.27;37.31;94725.53;4928954;29;20119;-74
2021/09/04 12:34:35;;;;;;;4.97;3.28;;;;;;;25.08;36.42;94717.31;4912664;29;20035;-75
2021/09/04 12:37:01;;;;;;;4.20;3.90;;;;;;;25.22;38.91;94723.69;4904136;29;20032;-75
2021/09/04 12:39:28;;;;;;;4.45;3.78;;;;;;;24.80;36.62;94715.16;4915746;29;20043;-75
2021/09/04 12:42:08;;;;;;;4.40;4.00;;;;;;;25.24;36.90;94715.47;4926655;29;20622;-75
2021/09/04 12:44:46;;;;;;;3.90;3.55;;;;;;;25.08;37.12;94722.63;4910441;29;20405;-76
2021/09/04 12:47:14;;;;;;;4.38;4.03;;;;;;;25.11;36.95;94722.09;4922422;29;20102;-76
2021/09/04 12:49:40;;;;;;;11.90;4.47;;;;;;;24.93;36.03;94719.97;4912835;29;20027;-76
2021/09/04 12:52:11;;;;;;;4.60;4.22;;;;;;;25.11;37.29;94720.22;4927767;29;20043;-79
2021/09/04 12:54:50;;;;;;;4.40;4.07;;;;;;;25.10;37.50;94705.41;4913315;29;20028;-76
2021/09/04 12:57:18;;;;;;;4.60;4.05;;;;;;;25.62;37.08;94704.28;4928334;29;20509;-75
2021/09/04 12:59:50;;;;;;;4.85;4.38;;;;;;;25.06;39.58;94703.53;4924203;29;20071;-76
2021/09/04 13:02:18;;;;;;;8.10;4.40;;;;;;;25.41;39.49;94694.72;4912986;29;20052;-77
2021/09/04 13:04:45;;;;;;;7.05;4.10;;;;;;;25.73;39.54;94691.75;4926408;29;20052;-77
2021/09/04 13:07:10;;;;;;;8.45;4.20;;;;;;;25.63;39.49;94693.38;4943562;29;20031;-76
2021/09/04 13:09:36;;;;;;;4.93;4.20;;;;;;;25.53;38.67;94696.06;4913636;29;20023;-76
2021/09/04 13:12:01;;;;;;;4.28;3.97;;;;;;;25.11;37.23;94690.25;4933153;29;20034;-76
2021/09/04 13:14:27;;;;;;;5.18;3.92;;;;;;;25.51;40.70;94686.78;4933520;29;20059;-76
2021/09/04 13:16:54;;;;;;;5.63;4.15;;;;;;;25.53;40.55;94681.97;4915544;29;20107;-74
2021/09/04 13:19:19;;;;;;;4.60;4.20;;;;;;;25.39;39.69;94689.72;4913378;29;20028;-75
2021/09/04 13:21:45;;;;;;;3.90;3.60;;;;;;;25.65;39.35;94685.91;4912302;29;20486;-77
2021/09/04 13:24:11;;;;;;;4.90;4.43;;;;;;;25.69;38.88;94689.63;4925227;29;20514;-77
2021/09/04 13:26:37;;;;;;;7.60;4.20;;;;;;;25.60;38.69;94695.75;4931661;29;20114;-78
2021/09/04 13:29:02;;;;;;;4.13;3.72;;;;;;;25.10;38.43;94683.41;4931485;29;20059;-75
2021/09/04 13:31:28;;;;;;;4.28;3.97;;;;;;;25.15;39.88;94680.72;4933585;29;20410;-74
2021/09/04 13:33:53;;;;;;;4.47;3.70;;;;;;;25.44;38.63;94684.38;4931407;29;20038;-77
2021/09/04 13:36:19;;;;;;;4.40;4.00;;;;;;;25.08;38.57;94667.75;4933868;29;20024;-76
2021/09/04 13:38:44;;;;;;;5.00;4.45;;;;;;;25.06;38.60;94666.44;4914975;29;20023;-77
2021/09/04 13:41:10;;;;;;;4.93;3.95;;;;;;;25.07;39.33;94673.31;4948277;29;20490;-77
2021/09/04 13:43:35;;;;;;;4.50;3.95;;;;;;;25.12;38.69;94668.00;4946759;29;20043;-77
2021/09/04 13:46:01;;;;;;;4.05;3.75;;;;;;;25.16;38.73;94669.06;4932118;29;20555;-77
2021/09/04 13:48:26;;;;;;;5.95;4.13;;;;;;;24.86;37.95;94655.84;4931433;29;20028;-78
2021/09/04 13:50:52;;;;;;;11.20;4.10;;;;;;;25.27;38.67;94664.53;4931657;29;20027;-76
2021/09/04 13:53:20;;;;;;;4.60;4.20;;;;;;;25.21;39.59;94662.94;4931997;29;20075;-76
2021/09/04 13:55:46;;;;;;;4.22;3.92;;;;;;;25.21;38.76;94661.09;4930824;29;20031;-78
2021/09/04 13:58:12;;;;;;;8.88;4.30;;;;;;;25.31;38.94;94657.63;4947918;28;20027;-75
2021/09/04 14:00:37;;;;;;;8.23;4.13;;;;;;;25.43;40.02;94650.94;4914442;29;20123;-75
2021/09/04 14:03:03;;;;;;;4.40;4.10;;;;;;;25.23;36.83;94651.03;4931959;29;20043;-76
2021/09/04 14:05:28;;;;;;;4.90;4.05;;;;;;;24.92;38.82;94649.47;4946419;28;20056;-75
2021/09/04 14:07:54;;;;;;;4.55;4.15;;;;;;;25.21;37.88;94645.16;4900299;29;20462;-77
2021/09/04 14:10:19;;;;;;;5.55;4.18;;;;;;;25.13;37.35;94648.38;4915576;29;20035;-76
2021/09/04 14:12:45;;;;;;;3.60;3.30;;;;;;;25.37;37.54;94656.53;4899310;29;20058;-75
2021/09/04 14:15:10;;;;;;;4.07;3.60;;;;;;;25.32;37.44;94651.25;4914307;29;20027;-76
2021/09/04 14:17:36;;;;;;;6.60;3.92;;;;;;;25.42;37.81;94656.53;4897077;29;20027;-74
2021/09/04 14:20:04;;;;;;;3.70;3.40;;;;;;;25.39;37.49;94649.91;4913978;29;20023;-78
2021/09/04 14:22:29;;;;;;;4.35;3.55;;;;;;;24.90;36.81;94641.00;4930715;29;20095;-76
2021/09/04 14:24:55;;;;;;;4.78;3.15;;;;;;;24.94;36.37;94645.50;4898167;29;20028;-76
2021/09/04 14:27:20;;;;;;;4.97;3.15;;;;;;;24.70;37.08;94617.94;4914358;29;20043;-76
2021/09/04 14:29:46;;;;;;;3.70;3.38;;;;;;;24.74;36.02;94644.69;4938887;29;20481;-77
2021/09/04 14:32:11;;;;;;;8.98;4.20;;;;;;;24.70;36.60;94641.78;4915577;29;20087;-77
2021/09/04 14:34:36;;;;;;;5.95;3.53;;;;;;;24.84;37.11;94636.75;4898553;29;20043;-76
2021/09/04 14:37:02;;;;;;;5.53;3.55;;;;;;;24.91;37.89;94638.09;4910293;29;20035;-78
2021/09/04 14:39:28;;;;;;;5.88;3.17;;;;;;;25.01;37.18;94632.75;4917220;29;20047;-76
2021/09/04 14:41:53;;;;;;;5.13;3.75;;;;;;;24.92;38.69;94644.16;4923699;29;20071;-76
2021/09/04 14:44:19;;;;;;;4.68;3.45;;;;;;;24.86;38.56;94643.38;4929519;29;20084;-75
2021/09/04 14:46:44;;;;;;;5.10;3.50;;;;;;;24.96;37.64;94647.88;4909321;29;20040;-77
2021/09/04 14:49:10;;;;;;;6.10;3.70;;;;;;;25.11;36.98;94642.53;4909664;29;20028;-77
2021/09/04 14:51:35;;;;;;;3.20;3.00;;;;;;;24.93;36.98;94641.25;4914002;29;20039;-76
2021/09/04 14:54:01;;;;;;;3.60;3.30;;;;;;;24.74;36.93;94640.19;4928385;29;20016;-77
2021/09/04 14:56:27;;;;;;;4.38;3.30;;;;;;;24.92;38.37;94628.25;4912855;29;20135;-77
2021/09/04 14:58:53;;;;;;;4.63;3.35;;;;;;;24.74;37.99;94631.44;4898592;29;20036;-78
2021/09/04 15:01:18;;;;;;;4.53;3.40;;;;;;;24.51;38.07;94636.22;4899268;29;20054;-76
2021/09/04 15:03:45;;;;;;;3.60;3.30;;;;;;;24.36;37.33;94641.53;4930514;29;20062;-76
2021/09/04 15:06:10;;;;;;;3.67;3.35;;;;;;;24.44;37.85;94637.53;4928823;29;20086;-76
2021/09/04 15:08:36;;;;;;;4.75;3.42;;;;;;;24.36;38.38;94646.00;4908852;29;20032;-76
2021/09/04 15:11:01;;;;;;;6.65;3.40;;;;;;;24.21;38.85;94630.88;4923218;29;20027;-78
2021/09/04 15:13:26;;;;;;;3.22;2.90;;;;;;;24.24;37.86;94633.00;4953826;28;20434;-77
2021/09/04 15:15:52;;;;;;;4.03;3.63;;;;;;;24.22;38.84;94632.50;4923821;29;20024;-77
2021/09/04 15:18:17;;;;;;;4.07;3.38;;;;;;;24.24;38.06;94626.94;4956004;28;20036;-76
2021/09/04 15:20:43;;;;;;;4.13;3.60;;;;;;;24.11;39.38;94628.22;4955127;28;20051;-77
2021/09/04 15:23:08;;;;;;;4.00;3.60;;;;;;;24.17;38.84;94629.84;4921788;29;20032;-77
2021/09/04 15:25:34;;;;;;;8.50;3.58;;;;;;;24.04;39.08;94625.81;4937674;29;20052;-77
2021/09/04 15:27:59;;;;;;;3.45;3.15;;;;;;;23.96;39.38;94628.97;4928876;29;20035;-76
2021/09/04 15:30:25;;;;;;;3.40;3.10;;;;;;;23.75;40.39;94637.13;4920411;29;20032;-77
2021/09/04 15:32:50;;;;;;;2.92;2.72;;;;;;;23.65;39.64;94635.25;4905162;29;20473;-76
2021/09/04 15:35:17;;;;;;;3.38;3.17;;;;;;;23.61;41.03;94629.66;4947374;28;20051;-77
2021/09/04 15:37:43;;;;;;;2.92;2.72;;;;;;;23.44;41.17;94626.41;4917949;29;20025;-76
2021/09/04 15:40:09;;;;;;;4.00;3.30;;;;;;;23.26;42.65;94618.91;4949972;28;20036;-75
2021/09/04 15:42:34;;;;;;;4.57;3.10;;;;;;;23.12;43.29;94615.13;4951431;28;20032;-76
2021/09/04 15:45:01;;;;;;;3.90;3.50;;;;;;;23.03;43.74;94624.59;4949985;28;20047;-76
2021/09/04 15:47:27;;;;;;;3.20;3.00;;;;;;;22.88;44.41;94624.53;4926290;29;20028;-76
2021/09/04 15:49:52;;;;;;;3.80;3.28;;;;;;;22.78;45.29;94630.53;4931263;29;20059;-78
2021/09/04 15:52:18;;;;;;;3.25;3.03;;;;;;;22.68;46.00;94627.03;4944819;29;20024;-76
2021/09/04 15:54:43;;;;;;;5.32;3.58;;;;;;;22.56;46.66;94627.97;4913342;29;20054;-77
2021/09/04 15:57:09;;;;;;;4.13;3.28;;;;;;;22.42;46.87;94629.44;4912449;29;20032;-79
2021/09/04 15:59:34;;;;;;;4.10;3.67;;;;;;;22.32;47.68;94634.63;4929588;29;20118;-77
2021/09/04 16:01:59;;;;;;;4.00;3.60;;;;;;;22.28;48.07;94635.41;4929701;29;20044;-75
2021/09/04 16:04:25;;;;;;;4.20;3.13;;;;;;;22.27;48.32;94641.72;4931219;29;20042;-76
2021/09/04 16:06:50;;;;;;;3.65;3.38;;;;;;;22.16;48.97;94640.81;4913524;29;20386;-75
2021/09/04 16:09:16;;;;;;;4.20;3.90;;;;;;;22.09;48.92;94632.31;4945232;29;20619;-76
2021/09/04 16:11:41;;;;;;;4.25;3.75;;;;;;;22.03;49.36;94638.56;4945755;29;20095;-77
2021/09/04 16:14:07;;;;;;;3.95;3.63;;;;;;;21.99;49.79;94645.41;4928585;29;20105;-77
2021/09/04 16:16:35;;;;;;;3.88;3.58;;;;;;;21.83;50.68;94648.91;4913708;29;20481;-76
2021/09/04 16:19:02;;;;;;;3.50;3.22;;;;;;;21.75;50.64;94650.13;4893655;29;20493;-77
2021/09/04 16:21:27;;;;;;;4.07;3.60;;;;;;;21.68;50.70;94646.88;4926539;29;20028;-75
2021/09/04 16:23:53;;;;;;;7.47;3.70;;;;;;;21.59;51.61;94642.28;4911065;29;20032;-77
2021/09/04 16:26:18;;;;;;;3.85;3.20;;;;;;;21.45;52.02;94641.88;4894742;29;20083;-76
2021/09/04 16:28:44;;;;;;;3.40;3.20;;;;;;;21.34;52.61;94645.44;4911668;29;20043;-77
2021/09/04 16:31:09;;;;;;;4.13;3.80;;;;;;;21.18;52.73;94649.72;4911076;29;20028;-77
2021/09/04 16:33:42;;;;;;;3.80;3.50;;;;;;;21.02;53.30;94646.03;4910726;29;20506;-77